createdAt,value
2018-02-05T17:28:36.257Z,1010.7
2018-02-05T17:29:50.319Z,1010.79
2018-02-05T17:31:04.872Z,1010.82
2018-02-05T17:32:19.589Z,1010.81
2018-02-05T17:33:34.045Z,1010.83
2018-02-05T17:34:48.184Z,1010.79
2018-02-05T17:36:02.276Z,1010.79
2018-02-05T17:37:16.561Z,1010.76
2018-02-05T17:38:30.500Z,1010.8
2018-02-05T17:39:45.581Z,1010.83
2018-02-05T17:40:59.742Z,1010.83
2018-02-05T17:42:14.280Z,1010.9
2018-02-05T17:43:29.158Z,1010.82
2018-02-05T17:44:43.162Z,1010.85
2018-02-05T17:45:57.738Z,1010.88
2018-02-05T17:47:11.840Z,1010.88
2018-02-05T17:48:26.713Z,1010.85
2018-02-05T17:49:41.494Z,1010.95
2018-02-05T17:50:56.493Z,1010.91
2018-02-05T17:52:11.111Z,1010.91
2018-02-05T17:53:26.000Z,1010.97
2018-02-05T17:54:39.987Z,1010.9
2018-02-05T17:55:55.055Z,1010.91
2018-02-05T17:57:09.337Z,1010.85
2018-02-05T17:58:24.406Z,1010.96
2018-02-05T17:59:41.515Z,1010.94
2018-02-05T18:00:56.402Z,1010.9
2018-02-05T18:02:11.159Z,1010.89
2018-02-05T18:03:25.727Z,1010.99
2018-02-05T18:04:40.076Z,1010.97
2018-02-05T18:05:55.407Z,1010.93
2018-02-05T18:07:10.802Z,1010.99
2018-02-05T18:08:24.905Z,1010.99
2018-02-05T18:09:39.687Z,1010.96
2018-02-05T18:10:54.385Z,1010.96
2018-02-05T18:12:09.025Z,1010.91
2018-02-05T18:13:24.148Z,1010.95
2018-02-05T18:14:38.532Z,1010.96
2018-02-05T18:15:53.575Z,1010.95
2018-02-05T18:17:09.101Z,1010.91
2018-02-05T18:18:24.120Z,1010.96
2018-02-05T18:19:39.020Z,1010.94
2018-02-05T18:20:55.595Z,1010.9
2018-02-05T18:22:10.104Z,1010.85
2018-02-05T18:23:24.763Z,1010.98
2018-02-05T18:24:40.185Z,1010.87
2018-02-05T18:25:55.752Z,1010.79
2018-02-05T18:27:10.384Z,1010.87
2018-02-05T18:28:24.893Z,1010.9
2018-02-05T18:29:39.780Z,1010.91
2018-02-05T18:30:54.708Z,1010.9
2018-02-05T18:33:03.120Z,1010.89
2018-02-05T18:34:18.712Z,1010.92
2018-02-05T18:35:33.853Z,1010.91
2018-02-05T18:36:49.032Z,1010.92
2018-02-05T18:38:04.159Z,1010.84
2018-02-05T18:39:18.862Z,1010.87
2018-02-05T18:40:33.820Z,1010.79
2018-02-05T18:45:46.064Z,1010.86
2018-02-05T18:47:01.337Z,1010.85
2018-02-05T18:48:16.437Z,1010.95
2018-02-05T18:49:30.679Z,1010.79
2018-02-05T18:50:45.848Z,1010.84
2018-02-05T18:52:00.358Z,1010.81
2018-02-05T18:53:14.770Z,1010.74
2018-02-05T18:57:24.724Z,1010.79
2018-02-05T18:58:39.718Z,1010.81
2018-02-05T18:59:54.694Z,1010.87
2018-02-05T19:01:09.434Z,1010.76
2018-02-05T19:02:24.782Z,1010.92
2018-02-05T19:03:38.643Z,1010.84
2018-02-05T19:04:53.446Z,1010.7
2018-02-05T19:06:08.257Z,1010.71
2018-02-05T19:07:22.798Z,1010.72
2018-02-05T19:08:38.015Z,1010.7
2018-02-05T19:09:53.025Z,1010.69
2018-02-05T19:11:07.587Z,1010.62
2018-02-05T19:12:21.873Z,1010.75
2018-02-05T19:13:37.260Z,1010.62
2018-02-05T19:14:51.818Z,1010.65
2018-02-05T19:16:06.381Z,1010.79
2018-02-05T19:17:21.053Z,1010.62
2018-02-05T19:18:36.409Z,1010.59
2018-02-05T19:19:51.640Z,1010.68
2018-02-05T19:21:06.385Z,1010.68
2018-02-05T19:22:21.653Z,1010.74
2018-02-05T19:23:37.208Z,1010.63
2018-02-05T19:24:52.504Z,1010.68
2018-02-05T19:26:07.358Z,1010.61
2018-02-05T19:27:22.141Z,1010.62
2018-02-05T19:28:37.139Z,1010.67
2018-02-05T19:29:51.880Z,1010.66
2018-02-05T19:31:06.683Z,1010.68
2018-02-05T19:32:21.786Z,1010.63
2018-02-05T19:33:36.936Z,1010.64
2018-02-05T19:34:51.790Z,1010.74
2018-02-05T19:36:06.592Z,1010.67
2018-02-05T19:37:23.073Z,1010.66
2018-02-05T19:38:38.830Z,1010.69
2018-02-05T19:39:54.021Z,1010.59
2018-02-05T19:41:08.919Z,1010.68
2018-02-05T19:42:23.590Z,1010.74
2018-02-05T19:43:38.136Z,1010.62
2018-02-05T19:44:52.892Z,1010.76
2018-02-05T19:46:07.744Z,1010.69
2018-02-05T19:47:22.673Z,1010.68
2018-02-05T19:48:38.492Z,1010.59
2018-02-05T19:49:53.331Z,1010.6
2018-02-05T19:51:08.090Z,1010.59
2018-02-05T19:52:22.947Z,1010.65
2018-02-05T19:53:38.474Z,1010.59
2018-02-05T19:54:53.903Z,1010.59
2018-02-05T19:56:08.450Z,1010.66
2018-02-05T19:57:23.491Z,1010.63
2018-02-05T19:58:39.065Z,1010.63
2018-02-05T19:59:53.658Z,1010.58
2018-02-05T20:01:08.587Z,1010.6
2018-02-05T20:02:23.590Z,1010.52
2018-02-05T20:03:39.319Z,1010.6
2018-02-05T20:04:53.809Z,1010.52
2018-02-05T20:06:08.830Z,1010.64
2018-02-05T20:07:23.378Z,1010.56
2018-02-05T20:08:38.473Z,1010.7
2018-02-05T20:09:54.266Z,1010.74
2018-02-05T20:11:09.099Z,1010.62
2018-02-05T20:12:23.930Z,1010.62
2018-02-05T20:13:39.268Z,1010.52
2018-02-05T20:14:53.953Z,1010.61
2018-02-05T20:16:08.535Z,1010.65
2018-02-05T20:17:23.691Z,1010.58
2018-02-05T20:18:39.222Z,1010.58
2018-02-05T20:19:54.738Z,1010.58
2018-02-05T20:21:09.691Z,1010.61
2018-02-05T20:22:24.965Z,1010.67
2018-02-05T20:23:40.362Z,1010.77
2018-02-05T20:24:55.902Z,1010.72
2018-02-05T20:26:10.980Z,1010.74
2018-02-05T20:27:25.487Z,1010.67
2018-02-05T20:28:41.145Z,1010.69
2018-02-05T20:29:56.607Z,1010.71
2018-02-05T20:31:11.763Z,1010.73
2018-02-05T20:32:27.119Z,1010.65
2018-02-05T20:33:42.313Z,1010.73
2018-02-05T20:34:57.394Z,1010.61
2018-02-05T20:36:12.419Z,1010.6
2018-02-05T20:37:27.838Z,1010.64
2018-02-05T20:38:42.411Z,1010.67
2018-02-05T20:39:57.255Z,1010.68
2018-02-05T20:41:12.595Z,1010.74
2018-02-05T20:42:28.451Z,1010.58
2018-02-05T20:43:43.574Z,1010.57
2018-02-05T20:44:58.993Z,1010.56
2018-02-05T20:46:13.389Z,1010.56
2018-02-05T20:47:28.494Z,1010.58
2018-02-05T20:48:43.597Z,1010.56
2018-02-05T20:49:59.065Z,1010.52
2018-02-05T20:51:14.474Z,1010.64
2018-02-05T20:52:29.272Z,1010.66
2018-02-05T20:53:43.595Z,1010.58
2018-02-05T20:54:58.855Z,1010.62
2018-02-05T20:56:14.011Z,1010.55
2018-02-05T20:57:28.825Z,1010.59
2018-02-05T20:58:44.574Z,1010.51
2018-02-05T21:00:00.360Z,1010.51
2018-02-05T21:01:14.829Z,1010.54
2018-02-05T21:02:29.671Z,1010.47
2018-02-05T21:03:45.354Z,1010.49
2018-02-05T21:05:00.870Z,1010.47
2018-02-05T21:06:15.811Z,1010.47
2018-02-05T21:07:30.697Z,1010.4
2018-02-05T21:08:45.803Z,1010.38
2018-02-05T21:10:00.594Z,1010.44
2018-02-05T21:11:15.232Z,1010.33
2018-02-05T21:12:30.093Z,1010.34
2018-02-05T21:13:45.729Z,1010.29
2018-02-05T21:15:00.526Z,1010.26
2018-02-05T21:16:15.004Z,1010.25
2018-02-05T21:17:30.845Z,1010.46
2018-02-05T21:18:46.211Z,1010.41
2018-02-05T21:20:01.152Z,1010.34
2018-02-05T21:21:16.561Z,1010.28
2018-02-05T21:22:31.051Z,1010.24
2018-02-05T21:23:46.327Z,1010.26
2018-02-05T21:25:00.874Z,1010.23
2018-02-05T21:26:15.308Z,1010.19
2018-02-05T21:27:29.823Z,1010.11
2018-02-05T21:28:44.923Z,1010.11
2018-02-05T21:30:00.150Z,1010.18
2018-02-05T21:31:14.882Z,1010.1
2018-02-05T21:32:29.654Z,1010.14
2018-02-05T21:33:44.306Z,1010.14
2018-02-05T21:35:00.058Z,1010.08
2018-02-05T21:36:15.417Z,1010.11
2018-02-05T21:37:29.915Z,1010.1
2018-02-05T21:38:44.647Z,1010.11
2018-02-05T21:39:59.413Z,1010.08
2018-02-05T21:41:13.843Z,1010.1
2018-02-05T21:42:28.846Z,1010.06
2018-02-05T21:43:43.901Z,1010.1
2018-02-05T21:44:58.517Z,1010.05
2018-02-05T21:46:12.498Z,1010
2018-02-05T21:47:27.958Z,1010.03
2018-02-05T21:48:42.839Z,1009.97
2018-02-05T21:49:57.495Z,1010.08
2018-02-05T21:51:12.751Z,1010
2018-02-05T21:52:27.528Z,1009.94
2018-02-05T21:53:42.246Z,1010.05
2018-02-05T21:54:57.293Z,1009.91
2018-02-05T21:56:11.755Z,1009.95
2018-02-05T21:57:25.894Z,1009.89
2018-02-05T21:58:40.674Z,1009.84
2018-02-05T21:59:54.983Z,1009.82
2018-02-05T22:01:08.885Z,1009.79
2018-02-05T22:02:24.424Z,1009.91
2018-02-05T22:03:38.653Z,1009.81
2018-02-05T22:04:53.996Z,1009.88
2018-02-05T22:06:08.806Z,1009.79
2018-02-05T22:07:23.417Z,1009.78
2018-02-05T22:08:38.420Z,1009.83
2018-02-05T22:09:53.467Z,1009.74
2018-02-05T22:11:08.907Z,1009.74
2018-02-05T22:12:23.394Z,1009.77
2018-02-05T22:13:38.984Z,1009.69
2018-02-05T22:14:54.267Z,1009.65
2018-02-05T22:16:08.748Z,1009.67
2018-02-05T22:17:23.840Z,1009.7
2018-02-05T22:18:38.741Z,1009.65
2018-02-05T22:19:54.037Z,1009.57
2018-02-05T22:21:08.390Z,1009.7
2018-02-05T22:22:24.090Z,1009.62
2018-02-05T22:23:39.221Z,1009.62
2018-02-05T22:24:54.352Z,1009.62
2018-02-05T22:26:09.488Z,1009.59
2018-02-05T22:27:23.655Z,1009.64
2018-02-05T22:28:38.678Z,1009.53
2018-02-05T22:29:53.596Z,1009.56
2018-02-05T22:31:08.945Z,1009.53
2018-02-05T22:32:24.649Z,1009.47
2018-02-05T22:33:39.364Z,1009.47
2018-02-05T22:34:54.181Z,1009.49
2018-02-05T22:36:08.939Z,1009.56
2018-02-05T22:37:23.925Z,1009.52
2018-02-05T22:38:38.687Z,1009.56
2018-02-05T22:39:53.618Z,1009.52
2018-02-05T22:41:09.129Z,1009.53
2018-02-05T22:42:23.543Z,1009.52
2018-02-05T22:43:38.192Z,1009.53
2018-02-05T22:44:53.114Z,1009.42
2018-02-05T22:46:07.540Z,1009.49
2018-02-05T22:47:21.610Z,1009.36
2018-02-05T22:48:37.062Z,1009.29
2018-02-05T22:49:52.002Z,1009.39
2018-02-05T22:51:06.982Z,1009.41
2018-02-05T22:52:21.557Z,1009.36
2018-02-05T22:53:37.051Z,1009.46
2018-02-05T22:54:51.780Z,1009.31
2018-02-05T22:56:06.659Z,1009.41
2018-02-05T22:57:21.904Z,1009.3
2018-02-05T22:58:36.341Z,1009.21
2018-02-05T22:59:51.095Z,1009.32
2018-02-05T23:01:07.098Z,1009.28
2018-02-05T23:02:22.812Z,1009.32
2018-02-05T23:03:37.022Z,1009.37
2018-02-05T23:04:51.947Z,1009.4
2018-02-05T23:06:06.770Z,1009.38
2018-02-05T23:07:21.814Z,1009.24
2018-02-05T23:08:36.543Z,1009.22
2018-02-05T23:09:51.020Z,1009.23
2018-02-05T23:11:05.626Z,1009.2
2018-02-05T23:12:21.058Z,1009.25
2018-02-05T23:13:35.667Z,1009.17
2018-02-05T23:14:50.068Z,1009.13
2018-02-05T23:16:04.975Z,1009.2
2018-02-05T23:17:19.424Z,1009.17
2018-02-05T23:18:34.475Z,1009.14
2018-02-05T23:19:49.479Z,1009.23
2018-02-05T23:21:04.531Z,1009.19
2018-02-05T23:22:19.403Z,1009.17
2018-02-05T23:23:34.253Z,1009.17
2018-02-05T23:24:49.449Z,1009.17
2018-02-05T23:26:04.760Z,1009.12
2018-02-05T23:27:19.759Z,1009.16
2018-02-05T23:28:34.387Z,1009.04
2018-02-05T23:29:49.022Z,1009.14
2018-02-05T23:31:03.673Z,1009.07
2018-02-05T23:32:19.029Z,1008.98
2018-02-05T23:33:33.931Z,1009.04
2018-02-05T23:34:48.657Z,1009.03
2018-02-05T23:36:03.393Z,1008.99
2018-02-05T23:37:18.111Z,1008.95
2018-02-05T23:38:32.517Z,1008.91
2018-02-05T23:39:46.924Z,1008.88
2018-02-05T23:41:01.599Z,1008.99
2018-02-05T23:42:16.720Z,1008.88
2018-02-05T23:43:31.456Z,1008.87
2018-02-05T23:44:46.370Z,1008.81
2018-02-05T23:46:00.720Z,1008.78
2018-02-05T23:47:15.759Z,1008.8
2018-02-05T23:48:30.118Z,1008.78
2018-02-05T23:49:44.926Z,1008.77
2018-02-05T23:50:59.850Z,1008.67
2018-02-05T23:52:14.739Z,1008.72
2018-02-05T23:53:29.276Z,1008.77
2018-02-05T23:54:44.100Z,1008.75
2018-02-05T23:55:59.254Z,1008.68
2018-02-05T23:57:14.381Z,1008.66
2018-02-05T23:58:29.071Z,1008.68
2018-02-05T23:59:44.039Z,1008.6
